Time;durP1;ratioP1;P1;durP2;ratioP2;P2;SDS_P1;SDS_P2;PMS_P1;PMS_P2;Temp;Humidity;BMP_temperature;BMP_pressure;BME280_temperature;BME280_humidity;BME280_pressure;Samples;Min_cycle;Max_cycle;Signal;HPM_P1;HPM_P2
2022/02/02 00:00:54;;;;;;;13.48;7.13;;;;;;;;;;5981904;29;20074;-74
2022/02/02 00:04:00;;;;;;;17.25;6.70;;;;;;;;;;5980308;29;20106;-74
2022/02/02 00:07:10;;;;;;;15.27;6.32;;;;;;;;;;5979790;29;20062;-75
2022/02/02 00:10:35;;;;;;;14.13;6.57;;;;;;;;;;5980716;29;20494;-75
2022/02/02 00:13:52;;;;;;;11.30;4.30;;;;;;;;;;5979501;29;20505;-75
2022/02/02 00:17:01;;;;;;;16.27;6.40;;;;;;;;;;5978397;29;20051;-75
2022/02/02 00:20:16;;;;;;;13.05;5.80;;;;;;;;;;5980182;29;20125;-76
2022/02/02 00:23:25;;;;;;;;;;;;;;;;;;5985461;29;20061;-76
2022/02/02 00:26:33;;;;;;;11.15;5.10;;;;;;;;;;5985328;29;20016;-76
2022/02/02 00:29:42;;;;;;;11.75;6.00;;;;;;;;;;5984690;29;20059;-74
2022/02/02 00:36:12;;;;;;;11.25;4.25;;;;;;;;;;5984043;29;20070;-74
2022/02/02 00:39:18;;;;;;;11.20;5.43;;;;;;;;;;5986168;29;20077;-74
2022/02/02 00:42:30;;;;;;;12.10;6.43;;;;;;;;;;5985848;29;20057;-74
2022/02/02 00:45:43;;;;;;;13.60;6.40;;;;;;;;;;5986133;29;20293;-74
2022/02/02 00:48:52;;;;;;;13.65;5.75;;;;;;;;;;5985619;29;20054;-73
2022/02/02 00:51:58;;;;;;;16.02;6.70;;;;;;;;;;5984260;29;20417;-75
2022/02/02 00:55:02;;;;;;;13.57;6.07;;;;;;;;;;5985877;29;20124;-77
2022/02/02 00:58:06;;;;;;;15.43;6.85;;;;;;;;;;5986195;29;20046;-75
2022/02/02 01:01:09;;;;;;;16.00;5.85;;;;;;;;;;5984610;29;20050;-73
2022/02/02 01:04:14;;;;;;;11.55;5.82;;;;;;;;;;5985372;29;20050;-73
2022/02/02 01:07:24;;;;;;;12.85;6.20;;;;;;;;;;5985444;29;20062;-73
2022/02/02 01:10:35;;;;;;;12.30;5.57;;;;;;;;;;5983301;29;20053;-75
2022/02/02 01:20:34;;;;;;;8.18;4.60;;;;;;;;;;5982422;29;20054;-76
2022/02/02 01:30:18;;;;;;;9.05;4.70;;;;;;;;;;5983665;29;20133;-79
2022/02/02 01:33:22;;;;;;;5.38;3.65;;;;;;;;;;5983359;29;20050;-80
2022/02/02 01:36:26;;;;;;;8.25;4.32;;;;;;;;;;5985176;29;20364;-79
2022/02/02 01:39:31;;;;;;;8.60;4.43;;;;;;;;;;5984535;29;20061;-78
2022/02/02 01:42:42;;;;;;;6.78;3.92;;;;;;;;;;5983737;29;20494;-77
2022/02/02 01:45:49;;;;;;;6.25;3.83;;;;;;;;;;5983949;29;20418;-79
2022/02/02 01:49:00;;;;;;;9.43;4.60;;;;;;;;;;5984975;29;20057;-78
2022/02/02 01:55:38;;;;;;;10.55;4.88;;;;;;;;;;5970667;29;20206;-79
2022/02/02 01:58:58;;;;;;;13.35;5.95;;;;;;;;;;5985207;29;20460;-77
2022/02/02 02:02:01;;;;;;;12.32;5.60;;;;;;;;;;5983639;29;20132;-76
2022/02/02 02:05:05;;;;;;;11.60;5.80;;;;;;;;;;5982999;29;20055;-76
2022/02/02 02:08:10;;;;;;;12.32;5.78;;;;;;;;;;5982981;29;20127;-75
2022/02/02 02:11:17;;;;;;;10.82;5.80;;;;;;;;;;5985076;29;20062;-75
2022/02/02 02:17:43;;;;;;;12.65;6.13;;;;;;;;;;5983014;29;20070;-75
2022/02/02 02:20:46;;;;;;;13.70;6.43;;;;;;;;;;5984559;29;20074;-74
2022/02/02 02:23:51;;;;;;;13.52;6.95;;;;;;;;;;5983264;29;20050;-75
2022/02/02 02:26:56;;;;;;;15.63;6.32;;;;;;;;;;5982610;29;20061;-75
2022/02/02 02:30:20;;;;;;;14.10;7.00;;;;;;;;;;5984413;29;20051;-76
2022/02/02 02:33:38;;;;;;;12.20;5.68;;;;;;;;;;5983277;29;20069;-77
2022/02/02 02:40:20;;;;;;;15.18;7.22;;;;;;;;;;5973798;29;20061;-77
2022/02/02 02:56:48;;;;;;;10.95;4.90;;;;;;;;;;5979840;29;20071;-78
2022/02/02 03:00:17;;;;;;;10.18;4.25;;;;;;;;;;5980007;29;20139;-78
2022/02/02 03:30:39;;;;;;;9.75;4.43;;;;;;;;;;5983158;29;20119;-78
2022/02/02 03:57:27;;;;;;;6.68;3.13;;;;;;;;;;5982610;29;20058;-76
2022/02/02 04:00:40;;;;;;;5.30;2.45;;;;;;;;;;5987331;29;20039;-76
2022/02/02 04:04:03;;;;;;;5.70;2.88;;;;;;;;;;5987365;29;20054;-76
2022/02/02 04:07:10;;;;;;;6.72;3.08;;;;;;;;;;5986140;29;20054;-76
2022/02/02 04:10:13;;;;;;;5.32;2.53;;;;;;;;;;5985658;29;20509;-76
2022/02/02 04:13:25;;;;;;;6.38;3.00;;;;;;;;;;5987120;29;20062;-77
2022/02/02 04:53:59;;;;;;;7.13;3.35;;;;;;;;;;5984782;29;20054;-79
2022/02/02 05:07:05;;;;;;;7.40;3.28;;;;;;;;;;5975877;29;20523;-76
2022/02/02 05:10:20;;;;;;;8.98;3.42;;;;;;;;;;5984170;29;20490;-76
2022/02/02 05:20:38;;;;;;;8.30;3.72;;;;;;;;;;5983767;29;20258;-77
2022/02/02 05:44:10;;;;;;;7.53;3.13;;;;;;;;;;5985545;29;20046;-77
2022/02/02 05:53:56;;;;;;;6.25;3.10;;;;;;;;;;5984244;29;20062;-78
2022/02/02 05:57:00;;;;;;;9.98;3.40;;;;;;;;;;5984365;29;20131;-78
2022/02/02 06:00:05;;;;;;;7.43;3.40;;;;;;;;;;5983131;29;20140;-77
2022/02/02 06:03:11;;;;;;;8.98;3.58;;;;;;;;;;5984905;29;20057;-78
2022/02/02 06:06:14;;;;;;;6.25;2.70;;;;;;;;;;5984711;29;20092;-79
2022/02/02 06:09:18;;;;;;;7.97;3.20;;;;;;;;;;5983260;29;20046;-77
2022/02/02 06:12:22;;;;;;;5.13;2.72;;;;;;;;;;5983280;29;20050;-77
2022/02/02 06:15:27;;;;;;;7.57;3.08;;;;;;;;;;5982994;29;20050;-77
2022/02/02 06:18:31;;;;;;;8.00;2.90;;;;;;;;;;5983551;29;20062;-77
2022/02/02 06:21:35;;;;;;;5.15;2.60;;;;;;;;;;5983158;29;20054;-77
2022/02/02 06:24:45;;;;;;;8.35;2.97;;;;;;;;;;5980711;29;20114;-75
2022/02/02 06:27:53;;;;;;;5.40;2.25;;;;;;;;;;5981163;29;20057;-77
2022/02/02 06:30:56;;;;;;;;;;;;;;;;;;5980682;29;20522;-76
2022/02/02 06:34:26;;;;;;;6.47;2.17;;;;;;;;;;5981117;29;19931;-77
2022/02/02 06:37:29;;;;;;;3.53;2.08;;;;;;;;;;5981299;29;20057;-76
2022/02/02 06:40:33;;;;;;;5.43;2.42;;;;;;;;;;5980831;29;20061;-77
2022/02/02 06:43:37;;;;;;;7.35;2.35;;;;;;;;;;5982020;29;20042;-78
2022/02/02 06:46:40;;;;;;;5.60;2.20;;;;;;;;;;5982557;29;20070;-77
2022/02/02 06:49:48;;;;;;;6.18;2.42;;;;;;;;;;5982802;29;20054;-76
2022/02/02 06:53:01;;;;;;;3.40;2.05;;;;;;;;;;5983059;29;20050;-76
2022/02/02 06:56:14;;;;;;;7.80;2.25;;;;;;;;;;5983653;29;20058;-76
2022/02/02 06:59:32;;;;;;;3.97;1.88;;;;;;;;;;5983947;29;20057;-76
2022/02/02 07:02:47;;;;;;;4.03;1.63;;;;;;;;;;5982808;29;20073;-79
2022/02/02 07:06:06;;;;;;;5.78;1.77;;;;;;;;;;5967261;29;20115;-77
2022/02/02 07:09:23;;;;;;;4.35;1.55;;;;;;;;;;5983392;29;20112;-76
2022/02/02 07:12:36;;;;;;;3.55;1.50;;;;;;;;;;5982180;29;20102;-76
2022/02/02 07:15:53;;;;;;;1.95;1.30;;;;;;;;;;5983900;29;20050;-76
2022/02/02 07:19:27;;;;;;;4.03;1.30;;;;;;;;;;5982791;29;20459;-75
2022/02/02 07:26:23;;;;;;;3.53;1.60;;;;;;;;;;5950106;29;20506;-75
2022/02/02 07:29:35;;;;;;;6.45;1.67;;;;;;;;;;5981950;29;20081;-75
2022/02/02 07:32:43;;;;;;;5.15;1.63;;;;;;;;;;5986847;29;20081;-75
2022/02/02 07:35:53;;;;;;;5.68;2.00;;;;;;;;;;5986504;29;20055;-76
2022/02/02 07:39:03;;;;;;;5.97;2.25;;;;;;;;;;5986243;29;20061;-76
2022/02/02 07:42:10;;;;;;;6.10;1.92;;;;;;;;;;5986310;29;20058;-76
2022/02/02 07:45:14;;;;;;;4.47;2.03;;;;;;;;;;5986553;29;20502;-76
2022/02/02 07:48:17;;;;;;;6.32;2.42;;;;;;;;;;5985645;29;20073;-76
2022/02/02 07:51:21;;;;;;;6.97;2.80;;;;;;;;;;5986111;29;20055;-78
2022/02/02 07:54:30;;;;;;;6.18;2.70;;;;;;;;;;5986558;29;20171;-79
2022/02/02 07:57:52;;;;;;;5.78;2.08;;;;;;;;;;5987390;29;20054;-79
2022/02/02 08:00:56;;;;;;;2.38;1.42;;;;;;;;;;5985813;29;20054;-79
2022/02/02 08:04:01;;;;;;;5.43;2.10;;;;;;;;;;5987201;29;20046;-78
2022/02/02 08:07:08;;;;;;;3.10;1.77;;;;;;;;;;5987212;29;20135;-77
2022/02/02 08:10:16;;;;;;;3.47;1.80;;;;;;;;;;5986612;29;20054;-78
2022/02/02 08:13:23;;;;;;;3.45;1.70;;;;;;;;;;5985718;29;20176;-78
2022/02/02 08:16:27;;;;;;;2.80;1.45;;;;;;;;;;5985785;29;20058;-78
2022/02/02 08:19:30;;;;;;;3.95;1.35;;;;;;;;;;5985761;29;20130;-78
2022/02/02 08:22:34;;;;;;;10.52;1.98;;;;;;;;;;5986783;29;20095;-79
2022/02/02 08:25:41;;;;;;;2.40;1.70;;;;;;;;;;5985472;29;20054;-78
2022/02/02 08:28:46;;;;;;;5.82;2.15;;;;;;;;;;5987231;29;20498;-77
2022/02/02 08:31:49;;;;;;;4.68;2.00;;;;;;;;;;5984896;29;20079;-77
2022/02/02 08:34:52;;;;;;;3.53;2.20;;;;;;;;;;5986432;29;20050;-77
2022/02/02 08:38:03;;;;;;;8.35;1.90;;;;;;;;;;5985504;29;20050;-76
2022/02/02 08:41:14;;;;;;;3.35;1.70;;;;;;;;;;5985096;29;20058;-76
2022/02/02 08:44:21;;;;;;;4.13;1.60;;;;;;;;;;5984283;29;20137;-76
2022/02/02 08:47:27;;;;;;;4.63;1.73;;;;;;;;;;5984597;29;20099;-75
2022/02/02 08:50:41;;;;;;;2.60;1.95;;;;;;;;;;5985433;29;20046;-77
2022/02/02 08:53:56;;;;;;;4.22;1.85;;;;;;;;;;5984383;29;20046;-77
2022/02/02 08:57:18;;;;;;;4.88;1.98;;;;;;;;;;5985941;29;20051;-77
2022/02/02 09:00:24;;;;;;;3.58;1.33;;;;;;;;;;5984494;29;20046;-75
2022/02/02 09:06:48;;;;;;;6.25;1.45;;;;;;;;;;5983394;29;20418;-75
2022/02/02 09:10:02;;;;;;;1.38;1.13;;;;;;;;;;5983996;29;20052;-77
2022/02/02 09:20:15;;;;;;;3.03;0.93;;;;;;;;;;5981494;29;20042;-76
2022/02/02 09:23:30;;;;;;;3.33;1.13;;;;;;;;;;5982821;29;20129;-75
2022/02/02 09:33:51;;;;;;;2.80;0.88;;;;;;;;;;5985281;29;20053;-76
2022/02/02 09:36:54;;;;;;;2.63;1.02;;;;;;;;;;5984739;29;20047;-76
2022/02/02 09:40:11;;;;;;;1.90;0.90;;;;;;;;;;5984763;29;20430;-75
2022/02/02 09:43:17;;;;;;;2.15;1.20;;;;;;;;;;5985250;29;20410;-77
2022/02/02 09:46:26;;;;;;;2.17;1.02;;;;;;;;;;5983525;29;20054;-76
2022/02/02 09:49:36;;;;;;;1.63;0.90;;;;;;;;;;5984664;29;20058;-77
2022/02/02 09:52:50;;;;;;;5.85;1.10;;;;;;;;;;5984919;29;20483;-76
2022/02/02 09:56:05;;;;;;;3.25;0.93;;;;;;;;;;5983185;29;20065;-76
2022/02/02 09:59:23;;;;;;;2.83;0.88;;;;;;;;;;5984609;29;20107;-76
2022/02/02 10:02:35;;;;;;;3.13;1.25;;;;;;;;;;5982993;29;20088;-76
2022/02/02 10:05:47;;;;;;;1.50;0.88;;;;;;;;;;5983101;29;20046;-74
2022/02/02 10:09:20;;;;;;;1.95;0.77;;;;;;;;;;5983381;29;20065;-74
2022/02/02 10:12:46;;;;;;;3.30;0.90;;;;;;;;;;5984483;29;20053;-75
2022/02/02 10:15:56;;;;;;;2.03;0.65;;;;;;;;;;5983155;29;20062;-75
2022/02/02 10:19:14;;;;;;;2.95;0.80;;;;;;;;;;5984780;29;20058;-75
2022/02/02 10:22:19;;;;;;;4.38;1.15;;;;;;;;;;5984860;29;20054;-75
2022/02/02 10:25:26;;;;;;;2.83;0.73;;;;;;;;;;5983484;29;20051;-75
2022/02/02 10:28:31;;;;;;;4.65;1.00;;;;;;;;;;5984321;29;20050;-75
2022/02/02 10:31:38;;;;;;;3.75;0.75;;;;;;;;;;5984857;29;20446;-76
2022/02/02 10:34:43;;;;;;;1.40;1.05;;;;;;;;;;5983566;29;20517;-75
2022/02/02 10:37:56;;;;;;;1.73;0.80;;;;;;;;;;5983750;29;20066;-75
2022/02/02 10:41:13;;;;;;;4.22;1.20;;;;;;;;;;5980973;29;20409;-74
2022/02/02 10:44:19;;;;;;;3.78;0.77;;;;;;;;;;5964961;29;20126;-75
2022/02/02 10:47:32;;;;;;;3.95;0.90;;;;;;;;;;5981944;29;20843;-75
2022/02/02 10:50:46;;;;;;;3.92;1.10;;;;;;;;;;5979316;29;20050;-75
2022/02/02 10:57:35;;;;;;;4.80;1.23;;;;;;;;;;5979610;29;20303;-75
2022/02/02 11:00:52;;;;;;;2.13;1.17;;;;;;;;;;5979583;29;20046;-74
2022/02/02 11:07:23;;;;;;;1.60;0.80;;;;;;;;;;5981880;29;20066;-76
2022/02/02 11:10:28;;;;;;;6.60;1.00;;;;;;;;;;5979578;29;20076;-75
2022/02/02 11:13:31;;;;;;;4.60;0.93;;;;;;;;;;5982124;29;20046;-75
2022/02/02 11:16:35;;;;;;;7.50;1.83;;;;;;;;;;5981080;29;20050;-75
2022/02/02 11:19:39;;;;;;;3.10;1.17;;;;;;;;;;5982647;29;20488;-75
2022/02/02 11:22:50;;;;;;;4.75;0.93;;;;;;;;;;5981658;29;20427;-75
2022/02/02 11:25:59;;;;;;;2.55;1.25;;;;;;;;;;5979557;29;20051;-74
2022/02/02 11:29:06;;;;;;;7.78;1.45;;;;;;;;;;5980651;29;20057;-75
2022/02/02 11:32:09;;;;;;;2.20;1.02;;;;;;;;;;5980664;29;20126;-74
2022/02/02 11:35:27;;;;;;;2.47;1.02;;;;;;;;;;5979663;29;20042;-75
2022/02/02 11:38:54;;;;;;;5.32;1.10;;;;;;;;;;5981165;29;20521;-75
2022/02/02 11:42:10;;;;;;;7.10;1.23;;;;;;;;;;6004176;29;20106;-75
2022/02/02 11:45:35;;;;;;;6.30;1.20;;;;;;;;;;6004208;29;20179;-75
2022/02/02 11:49:02;;;;;;;4.82;1.05;;;;;;;;;;6005631;29;20057;-75
2022/02/02 11:52:05;;;;;;;2.55;0.88;;;;;;;;;;6005334;29;20050;-75
2022/02/02 11:55:30;;;;;;;3.55;0.85;;;;;;;;;;6005214;29;20061;-76
2022/02/02 11:58:36;;;;;;;4.15;1.52;;;;;;;;;;6004887;29;20130;-76
2022/02/02 12:01:44;;;;;;;4.35;1.17;;;;;;;;;;6004231;29;20076;-77
2022/02/02 12:04:57;;;;;;;6.60;1.40;;;;;;;;;;6004872;29;20058;-75
2022/02/02 12:08:13;;;;;;;3.05;0.80;;;;;;;;;;6004732;29;20395;-75
2022/02/02 12:46:11;;;;;;;4.85;1.02;;;;;;;;;;6007155;29;20137;-76
2022/02/02 12:49:09;;;;;;;4.78;0.98;;;;;;;;;;6002663;29;20549;-76
2022/02/02 12:59:33;;;;;;;1.60;0.63;;;;;;;;;;6002441;29;20248;-76
2022/02/02 13:02:35;;;;;;;4.03;0.80;;;;;;;;;;6006404;29;20049;-76
2022/02/02 13:05:39;;;;;;;1.80;0.90;;;;;;;;;;6008424;29;20050;-76
2022/02/02 13:08:48;;;;;;;4.03;0.88;;;;;;;;;;6007414;29;20065;-76
2022/02/02 13:11:55;;;;;;;5.43;1.27;;;;;;;;;;6008372;29;20038;-77
2022/02/02 13:15:18;;;;;;;2.58;0.82;;;;;;;;;;6006927;29;20438;-76
2022/02/02 13:18:25;;;;;;;3.40;1.45;;;;;;;;;;6007948;29;20056;-76
2022/02/02 13:21:31;;;;;;;6.78;1.08;;;;;;;;;;6006617;29;20058;-76
2022/02/02 13:24:37;;;;;;;4.22;1.00;;;;;;;;;;6006883;29;20045;-76
2022/02/02 13:27:46;;;;;;;4.45;1.25;;;;;;;;;;6007697;29;20054;-77
2022/02/02 13:30:54;;;;;;;6.18;1.33;;;;;;;;;;6007436;29;20057;-76
2022/02/02 13:34:13;;;;;;;4.20;0.93;;;;;;;;;;6006398;29;20054;-76
2022/02/02 13:44:05;;;;;;;6.47;1.75;;;;;;;;;;6005986;29;20522;-76
2022/02/02 13:47:35;;;;;;;4.03;1.20;;;;;;;;;;6007413;29;20057;-76
2022/02/02 13:54:32;;;;;;;3.53;1.20;;;;;;;;;;6005885;29;20114;-76
2022/02/02 14:01:22;;;;;;;7.57;2.75;;;;;;;;;;6005741;29;20121;-76
2022/02/02 14:04:38;;;;;;;2.95;1.20;;;;;;;;;;6007027;29;20065;-76
2022/02/02 14:07:51;;;;;;;8.30;1.52;;;;;;;;;;6007669;29;20061;-76
2022/02/02 14:31:12;;;;;;;6.90;1.35;;;;;;;;;;6005149;29;20057;-78
2022/02/02 14:34:26;;;;;;;4.68;1.30;;;;;;;;;;6005660;29;20046;-77
2022/02/02 14:37:38;;;;;;;3.22;1.20;;;;;;;;;;6006361;29;20045;-76
2022/02/02 14:41:03;;;;;;;6.07;1.73;;;;;;;;;;6004105;29;20494;-75
2022/02/02 14:44:12;;;;;;;3.88;1.25;;;;;;;;;;6006016;29;20062;-76
2022/02/02 14:47:26;;;;;;;4.65;1.48;;;;;;;;;;6006057;29;20049;-76
2022/02/02 14:50:32;;;;;;;7.40;1.55;;;;;;;;;;6006223;29;20086;-77
2022/02/02 14:53:53;;;;;;;3.03;1.25;;;;;;;;;;6004665;29;20054;-78
2022/02/02 15:27:29;;;;;;;3.80;1.30;;;;;;;;;;5999565;29;20533;-75
2022/02/02 15:30:44;;;;;;;6.22;1.25;;;;;;;;;;6004062;29;20161;-76
2022/02/02 15:33:52;;;;;;;4.60;1.13;;;;;;;;;;5988784;29;20057;-76
2022/02/02 15:40:34;;;;;;;6.80;1.30;;;;;;;;;;6004090;29;20050;-76
2022/02/02 15:43:49;;;;;;;6.90;1.58;;;;;;;;;;6004440;29;20133;-75
2022/02/02 16:03:57;;;;;;;4.15;1.02;;;;;;;;;;5984205;29;20514;-75
2022/02/02 16:07:04;;;;;;;3.97;1.10;;;;;;;;;;6006840;29;20519;-74
2022/02/02 16:10:16;;;;;;;2.88;1.05;;;;;;;;;;6006935;29;20119;-74
2022/02/02 16:13:33;;;;;;;3.17;1.35;;;;;;;;;;6007335;29;20050;-73
2022/02/02 16:17:00;;;;;;;6.82;1.42;;;;;;;;;;6007224;29;20050;-75
2022/02/02 16:34:36;;;;;;;4.05;1.38;;;;;;;;;;6009120;29;20053;-74
2022/02/02 16:37:29;;;;;;;3.88;1.83;;;;;;;;;;6007651;29;20501;-74
2022/02/02 16:40:37;;;;;;;2.95;1.13;;;;;;;;;;6007512;29;20057;-75
2022/02/02 16:43:41;;;;;;;2.60;1.13;;;;;;;;;;5993625;29;20050;-74
2022/02/02 16:46:44;;;;;;;2.85;1.33;;;;;;;;;;6007596;29;20046;-75
2022/02/02 16:49:47;;;;;;;3.60;1.23;;;;;;;;;;6008617;29;20078;-75
2022/02/02 16:52:55;;;;;;;4.75;1.50;;;;;;;;;;6009170;29;20054;-74
2022/02/02 16:56:05;;;;;;;3.80;1.60;;;;;;;;;;6007434;29;20058;-75
2022/02/02 17:33:01;;;;;;;2.55;1.10;;;;;;;;;;6007499;29;20046;-74
2022/02/02 17:36:16;;;;;;;9.30;1.63;;;;;;;;;;6007063;29;20115;-74
2022/02/02 17:39:21;;;;;;;4.20;1.20;;;;;;;;;;6006431;29;20054;-73
2022/02/02 17:42:51;;;;;;;3.63;1.60;;;;;;;;;;6006328;29;20058;-74
2022/02/02 17:46:04;;;;;;;2.75;1.63;;;;;;;;;;6006390;29;20046;-74
2022/02/02 18:19:39;;;;;;;5.95;1.60;;;;;;;;;;6003979;29;20062;-77
2022/02/02 18:22:56;;;;;;;2.50;1.23;;;;;;;;;;6005550;29;20050;-78
2022/02/02 18:26:11;;;;;;;3.28;1.17;;;;;;;;;;6005490;29;20119;-77
2022/02/02 18:29:19;;;;;;;6.88;1.70;;;;;;;;;;6006689;29;20175;-75
2022/02/02 18:32:43;;;;;;;5.25;1.98;;;;;;;;;;6005712;29;20054;-77
2022/02/02 18:35:53;;;;;;;9.30;1.83;;;;;;;;;;6006549;29;20046;-75
2022/02/02 18:49:20;;;;;;;7.35;1.98;;;;;;;;;;5992104;29;20066;-75
2022/02/02 18:56:13;;;;;;;6.47;1.50;;;;;;;;;;6006160;29;20054;-76
2022/02/02 18:59:34;;;;;;;9.57;1.92;;;;;;;;;;6004844;29;20057;-74
2022/02/02 19:56:30;;;;;;;7.15;2.10;;;;;;;;;;6003921;29;20493;-74
2022/02/02 20:06:46;;;;;;;4.65;1.70;;;;;;;;;;5973661;29;20061;-74
2022/02/02 20:09:56;;;;;;;10.45;2.80;;;;;;;;;;6005043;29;20493;-74
2022/02/02 20:13:01;;;;;;;4.25;1.77;;;;;;;;;;6004196;29;20058;-74
2022/02/02 20:16:04;;;;;;;8.52;2.10;;;;;;;;;;6005373;29;20081;-74
2022/02/02 20:19:12;;;;;;;7.32;2.33;;;;;;;;;;6005477;29;20049;-74
2022/02/02 20:22:16;;;;;;;8.05;1.92;;;;;;;;;;6003664;29;20080;-74
2022/02/02 20:25:24;;;;;;;6.60;1.95;;;;;;;;;;6004297;29;20137;-74
2022/02/02 20:28:27;;;;;;;9.90;2.33;;;;;;;;;;6003848;29;20050;-74
2022/02/02 20:31:32;;;;;;;10.23;2.72;;;;;;;;;;6004806;29;20413;-75
2022/02/02 20:34:36;;;;;;;9.10;2.60;;;;;;;;;;6004008;29;20052;-75
2022/02/02 20:37:41;;;;;;;4.25;2.00;;;;;;;;;;6005104;29;20050;-77
2022/02/02 20:40:44;;;;;;;6.15;1.98;;;;;;;;;;6007630;29;20061;-76
2022/02/02 20:43:54;;;;;;;5.97;2.25;;;;;;;;;;6007683;29;20053;-75
2022/02/02 21:04:04;;;;;;;5.20;1.88;;;;;;;;;;6008702;29;20049;-74
2022/02/02 21:07:24;;;;;;;6.97;1.67;;;;;;;;;;6008316;29;20455;-75
2022/02/02 21:10:32;;;;;;;7.13;1.90;;;;;;;;;;6008032;29;20443;-75
2022/02/02 21:13:44;;;;;;;7.90;1.92;;;;;;;;;;6008629;29;20079;-75
2022/02/02 21:16:48;;;;;;;6.78;1.70;;;;;;;;;;6007135;29;20042;-76
2022/02/02 21:19:57;;;;;;;4.75;2.17;;;;;;;;;;6007167;29;20053;-74
2022/02/02 21:23:05;;;;;;;10.60;2.00;;;;;;;;;;6006710;29;20081;-73
2022/02/02 21:26:32;;;;;;;9.10;1.90;;;;;;;;;;6009657;29;20529;-74
2022/02/02 21:32:58;;;;;;;7.25;1.90;;;;;;;;;;6005183;29;20046;-75
2022/02/02 21:36:08;;;;;;;7.53;1.70;;;;;;;;;;6008017;29;20050;-76
2022/02/02 21:39:20;;;;;;;5.88;1.48;;;;;;;;;;6008198;29;20057;-75
2022/02/02 21:42:23;;;;;;;3.97;2.00;;;;;;;;;;5991395;29;20114;-74
2022/02/02 21:45:28;;;;;;;4.25;1.50;;;;;;;;;;6007562;29;20038;-75
2022/02/02 21:48:33;;;;;;;3.63;1.70;;;;;;;;;;6007555;29;20114;-74
2022/02/02 21:51:40;;;;;;;5.65;1.70;;;;;;;;;;6007885;29;20042;-74
2022/02/02 21:54:47;;;;;;;8.73;3.00;;;;;;;;;;6006237;29;20054;-74
2022/02/02 21:57:51;;;;;;;8.13;2.75;;;;;;;;;;6007396;29;20050;-75
2022/02/02 22:00:56;;;;;;;8.00;2.10;;;;;;;;;;6006418;29;20475;-73
2022/02/02 22:03:59;;;;;;;4.95;1.60;;;;;;;;;;6007539;29;20133;-74
2022/02/02 22:07:04;;;;;;;8.32;1.65;;;;;;;;;;6005623;29;20070;-74
2022/02/02 22:10:16;;;;;;;6.18;1.70;;;;;;;;;;6006768;29;20058;-75
2022/02/02 22:13:23;;;;;;;7.53;1.80;;;;;;;;;;6009111;29;20080;-74
2022/02/02 22:16:28;;;;;;;5.47;1.52;;;;;;;;;;6010429;29;20061;-75
2022/02/02 22:19:35;;;;;;;5.43;1.75;;;;;;;;;;6009224;29;20426;-74
2022/02/02 22:22:41;;;;;;;6.00;1.70;;;;;;;;;;6008262;29;20050;-75
2022/02/02 22:25:47;;;;;;;7.30;1.65;;;;;;;;;;6006656;29;20050;-74
2022/02/02 22:28:50;;;;;;;9.93;1.73;;;;;;;;;;6005331;29;20167;-76
2022/02/02 22:31:55;;;;;;;3.95;1.63;;;;;;;;;;6007020;29;20049;-74
2022/02/02 22:34:59;;;;;;;4.07;1.70;;;;;;;;;;6006512;29;20046;-75
2022/02/02 22:38:02;;;;;;;8.95;1.70;;;;;;;;;;6005185;29;20110;-75
2022/02/02 22:41:06;;;;;;;6.00;1.65;;;;;;;;;;6005263;29;20166;-75
2022/02/02 22:44:13;;;;;;;5.10;1.80;;;;;;;;;;6006490;29;20053;-75
2022/02/02 22:47:17;;;;;;;22.05;8.38;;;;;;;;;;6006359;29;20429;-74
2022/02/02 22:50:22;;;;;;;5.40;1.70;;;;;;;;;;6004832;29;20053;-73
2022/02/02 22:53:26;;;;;;;5.78;1.90;;;;;;;;;;6004377;29;20549;-74
2022/02/02 22:56:31;;;;;;;6.07;1.70;;;;;;;;;;6006118;29;20046;-73
2022/02/02 22:59:39;;;;;;;4.22;1.55;;;;;;;;;;6005980;29;20053;-74
2022/02/02 23:02:51;;;;;;;7.88;2.05;;;;;;;;;;6004409;29;20057;-75
2022/02/02 23:05:58;;;;;;;11.70;1.92;;;;;;;;;;6006119;29;20526;-73
2022/02/02 23:09:05;;;;;;;9.88;2.75;;;;;;;;;;6005764;29;20491;-75
2022/02/02 23:12:10;;;;;;;10.38;2.03;;;;;;;;;;6004506;29;20049;-75
2022/02/02 23:15:19;;;;;;;6.13;1.80;;;;;;;;;;6004776;29;20482;-75
2022/02/02 23:18:24;;;;;;;6.70;1.80;;;;;;;;;;6004343;29;20065;-73
2022/02/02 23:21:28;;;;;;;8.20;1.85;;;;;;;;;;6003896;29;20050;-75
2022/02/02 23:24:32;;;;;;;7.60;2.10;;;;;;;;;;6003662;29;20046;-75
2022/02/02 23:27:43;;;;;;;8.90;2.00;;;;;;;;;;6003036;29;20053;-76
2022/02/02 23:30:46;;;;;;;4.28;1.60;;;;;;;;;;6004330;29;20413;-73
2022/02/02 23:33:50;;;;;;;6.05;1.70;;;;;;;;;;6005717;29;20049;-74
2022/02/02 23:36:53;;;;;;;5.03;1.83;;;;;;;;;;6003816;29;20058;-73
2022/02/02 23:39:58;;;;;;;7.13;1.60;;;;;;;;;;6004166;29;20114;-73
2022/02/02 23:43:02;;;;;;;7.15;1.88;;;;;;;;;;6005482;29;20050;-73
2022/02/02 23:46:08;;;;;;;10.10;2.13;;;;;;;;;;6004346;29;20054;-75
2022/02/02 23:49:18;;;;;;;6.43;1.90;;;;;;;;;;6003988;29;20117;-74
2022/02/02 23:52:24;;;;;;;4.30;2.00;;;;;;;;;;5989385;29;20052;-75
2022/02/02 23:55:31;;;;;;;9.60;2.00;;;;;;;;;;5989103;29;20046;-75
2022/02/02 23:58:42;;;;;;;6.38;2.28;;;;;;;;;;6004416;29;20050;-75
